Time;durP1;ratioP1;P1;durP2;ratioP2;P2;SDS_P1;SDS_P2;PMS_P1;PMS_P2;Temp;Humidity;BMP_temperature;BMP_pressure;BME280_temperature;BME280_humidity;BME280_pressure;Samples;Min_cycle;Max_cycle;Signal;HPM_P1;HPM_P2
2024/04/11 00:00:42;;;;;;;7.60;3.22;;;;;;;;;;4902219;29;20197;-93
2024/04/11 00:03:48;;;;;;;10.90;3.60;;;;;;;;;;4900960;29;20802;-92
2024/04/11 00:06:53;;;;;;;9.98;3.28;;;;;;;;;;4900885;29;20201;-93
2024/04/11 00:09:58;;;;;;;9.15;3.42;;;;;;;;;;4900967;29;20197;-94
2024/04/11 00:13:02;;;;;;;12.38;3.42;;;;;;;;;;4900874;29;20664;-93
2024/04/11 00:16:09;;;;;;;11.65;3.60;;;;;;;;;;4903231;29;20208;-93
2024/04/11 00:19:14;;;;;;;9.70;3.50;;;;;;;;;;4903502;29;20209;-95
2024/04/11 00:22:21;;;;;;;6.45;3.40;;;;;;;;;;4901922;29;20674;-92
2024/04/11 00:25:25;;;;;;;11.27;3.50;;;;;;;;;;4900440;29;20201;-94
2024/04/11 00:28:30;;;;;;;8.75;3.65;;;;;;;;;;4901225;29;20269;-93
2024/04/11 00:31:34;;;;;;;10.95;3.15;;;;;;;;;;4902476;29;20217;-94
2024/04/11 00:34:43;;;;;;;9.05;3.30;;;;;;;;;;4889453;29;20623;-93
2024/04/11 00:37:49;;;;;;;5.38;3.30;;;;;;;;;;4888941;29;20213;-91
2024/04/11 00:40:54;;;;;;;8.18;3.38;;;;;;;;;;4889313;29;20226;-92
2024/04/11 00:43:59;;;;;;;8.50;3.53;;;;;;;;;;4891167;29;20264;-94
2024/04/11 00:47:09;;;;;;;7.05;3.30;;;;;;;;;;4891672;29;20197;-93
2024/04/11 00:50:14;;;;;;;8.05;3.60;;;;;;;;;;4891277;29;20654;-92
2024/04/11 00:53:23;;;;;;;6.88;3.50;;;;;;;;;;4895042;29;20401;-91
2024/04/11 00:56:28;;;;;;;8.73;3.40;;;;;;;;;;4891636;29;20300;-93
2024/04/11 00:59:33;;;;;;;6.80;4.03;;;;;;;;;;4891447;29;20242;-93
2024/04/11 01:02:37;;;;;;;7.88;3.83;;;;;;;;;;4902010;29;20351;-91
2024/04/11 01:05:42;;;;;;;7.85;3.60;;;;;;;;;;4890969;29;20238;-94
2024/04/11 01:08:47;;;;;;;9.00;3.35;;;;;;;;;;4890601;29;20221;-93
2024/04/11 01:11:53;;;;;;;9.20;3.38;;;;;;;;;;4891540;29;20222;-93
2024/04/11 01:14:58;;;;;;;7.18;3.47;;;;;;;;;;4891882;29;20719;-94
2024/04/11 01:18:06;;;;;;;14.10;4.10;;;;;;;;;;4905856;29;20721;-91
2024/04/11 01:21:15;;;;;;;9.32;3.90;;;;;;;;;;4889289;29;20189;-93
2024/04/11 01:24:20;;;;;;;8.30;3.50;;;;;;;;;;4889999;29;20221;-91
2024/04/11 01:27:28;;;;;;;6.78;3.47;;;;;;;;;;4890833;29;20253;-92
2024/04/11 01:30:34;;;;;;;9.27;3.63;;;;;;;;;;4889351;29;20185;-94
2024/04/11 01:33:39;;;;;;;13.13;3.85;;;;;;;;;;4890931;29;20193;-92
2024/04/11 01:36:44;;;;;;;7.53;3.88;;;;;;;;;;4891054;29;20189;-93
2024/04/11 01:39:51;;;;;;;11.40;3.80;;;;;;;;;;4895468;29;20242;-92
2024/04/11 01:42:56;;;;;;;6.95;3.20;;;;;;;;;;4890554;29;20185;-93
2024/04/11 01:46:02;;;;;;;8.40;3.60;;;;;;;;;;4891117;29;20319;-93
2024/04/11 01:49:06;;;;;;;12.30;4.28;;;;;;;;;;4909693;29;20228;-93
2024/04/11 01:52:12;;;;;;;10.50;4.07;;;;;;;;;;4921034;29;20717;-93
2024/04/11 01:55:18;;;;;;;9.82;4.60;;;;;;;;;;4924366;29;20180;-90
2024/04/11 01:58:26;;;;;;;7.97;4.93;;;;;;;;;;4921482;29;20200;-93
2024/04/11 02:01:34;;;;;;;11.45;4.75;;;;;;;;;;4904598;29;20701;-94
2024/04/11 02:04:39;;;;;;;9.30;4.30;;;;;;;;;;4890726;29;20285;-93
2024/04/11 02:07:43;;;;;;;7.13;4.18;;;;;;;;;;4889549;29;20225;-93
2024/04/11 02:10:49;;;;;;;11.00;4.10;;;;;;;;;;4919643;29;20184;-92
2024/04/11 02:13:53;;;;;;;10.25;4.07;;;;;;;;;;4917713;29;20571;-91
2024/04/11 02:16:59;;;;;;;7.70;4.40;;;;;;;;;;4918877;29;20188;-93
2024/04/11 02:20:10;;;;;;;8.75;4.05;;;;;;;;;;4906862;29;20599;-93
2024/04/11 02:23:16;;;;;;;7.60;4.07;;;;;;;;;;4919766;29;20222;-93
2024/04/11 02:26:22;;;;;;;10.15;4.13;;;;;;;;;;4909006;29;20196;-93
2024/04/11 02:29:28;;;;;;;8.32;4.20;;;;;;;;;;4907124;29;20804;-93
2024/04/11 02:32:34;;;;;;;12.80;4.35;;;;;;;;;;4909227;29;20193;-93
2024/04/11 02:35:38;;;;;;;8.88;4.63;;;;;;;;;;4907276;29;20196;-92
2024/04/11 02:38:43;;;;;;;8.15;4.15;;;;;;;;;;4918367;29;20196;-92
2024/04/11 02:41:51;;;;;;;6.68;4.00;;;;;;;;;;4907462;29;20189;-93
2024/04/11 02:44:57;;;;;;;12.30;4.55;;;;;;;;;;4916793;29;20200;-93
2024/04/11 02:48:03;;;;;;;10.40;4.80;;;;;;;;;;4907851;29;20212;-93
2024/04/11 02:51:08;;;;;;;8.82;4.75;;;;;;;;;;4907082;29;20204;-93
2024/04/11 02:54:13;;;;;;;11.27;4.75;;;;;;;;;;4918971;29;20188;-93
2024/04/11 02:57:19;;;;;;;10.32;4.90;;;;;;;;;;4919088;29;20211;-94
2024/04/11 03:00:23;;;;;;;17.50;5.30;;;;;;;;;;4907353;29;20192;-93
2024/04/11 03:03:32;;;;;;;9.45;4.93;;;;;;;;;;4907424;29;20218;-94
2024/04/11 03:06:38;;;;;;;11.73;4.85;;;;;;;;;;4918263;29;20197;-90
2024/04/11 03:09:42;;;;;;;11.40;4.88;;;;;;;;;;4907654;29;20236;-91
2024/04/11 03:12:52;;;;;;;11.65;4.65;;;;;;;;;;4919365;29;20196;-91
2024/04/11 03:16:00;;;;;;;13.30;4.30;;;;;;;;;;4908338;29;20189;-93
2024/04/11 03:19:06;;;;;;;9.20;4.50;;;;;;;;;;4911608;29;20212;-92
2024/04/11 03:22:11;;;;;;;8.38;4.47;;;;;;;;;;4890108;29;20198;-92
2024/04/11 03:25:15;;;;;;;10.82;4.90;;;;;;;;;;4887333;29;20200;-90
2024/04/11 03:28:22;;;;;;;10.27;4.95;;;;;;;;;;4904920;29;20220;-92
2024/04/11 03:31:26;;;;;;;9.80;4.60;;;;;;;;;;4906363;29;20193;-92
2024/04/11 03:34:33;;;;;;;10.27;4.35;;;;;;;;;;4916500;29;20184;-94
2024/04/11 03:37:37;;;;;;;10.13;4.00;;;;;;;;;;4918791;29;20184;-92
2024/04/11 03:40:42;;;;;;;9.23;4.13;;;;;;;;;;4918476;29;20196;-91
2024/04/11 03:43:54;;;;;;;6.30;3.90;;;;;;;;;;4908293;29;20213;-91
2024/04/11 03:47:00;;;;;;;13.13;4.20;;;;;;;;;;4907238;29;20201;-92
2024/04/11 03:50:06;;;;;;;8.60;4.18;;;;;;;;;;4910477;29;20201;-92
2024/04/11 03:53:11;;;;;;;7.63;3.75;;;;;;;;;;4922282;29;20213;-91
2024/04/11 03:56:18;;;;;;;8.40;4.65;;;;;;;;;;4924143;29;20222;-91
2024/04/11 03:59:25;;;;;;;16.02;4.45;;;;;;;;;;4910319;29;20197;-93
2024/04/11 04:02:30;;;;;;;15.15;4.80;;;;;;;;;;4921829;29;20229;-94
2024/04/11 04:05:34;;;;;;;11.10;4.60;;;;;;;;;;4912668;29;20180;-93
2024/04/11 04:08:40;;;;;;;6.65;4.55;;;;;;;;;;4922843;29;20260;-91
2024/04/11 04:11:46;;;;;;;42.38;6.55;;;;;;;;;;4923454;29;20636;-92
2024/04/11 04:14:53;;;;;;;10.32;5.30;;;;;;;;;;4912669;29;20193;-90
2024/04/11 04:17:58;;;;;;;11.73;4.57;;;;;;;;;;4910944;29;20233;-92
2024/04/11 04:21:02;;;;;;;12.23;6.03;;;;;;;;;;4893222;29;20273;-92
2024/04/11 04:24:08;;;;;;;12.20;4.85;;;;;;;;;;4894200;29;20192;-92
2024/04/11 04:27:13;;;;;;;10.13;4.65;;;;;;;;;;4905242;29;20201;-91
2024/04/11 04:30:19;;;;;;;7.90;4.60;;;;;;;;;;4892383;29;20238;-93
2024/04/11 04:33:23;;;;;;;11.95;5.25;;;;;;;;;;4894553;29;20181;-94
2024/04/11 04:36:33;;;;;;;13.02;5.15;;;;;;;;;;4905318;29;20244;-92
2024/04/11 04:39:41;;;;;;;12.75;5.20;;;;;;;;;;4901086;29;20287;-93
2024/04/11 04:42:46;;;;;;;8.68;4.78;;;;;;;;;;4904283;29;20234;-92
2024/04/11 04:45:52;;;;;;;15.75;5.63;;;;;;;;;;4891551;29;20217;-93
2024/04/11 04:48:58;;;;;;;7.95;4.32;;;;;;;;;;4898878;29;20267;-92
2024/04/11 04:52:05;;;;;;;12.32;4.82;;;;;;;;;;4908768;29;20268;-93
2024/04/11 04:55:10;;;;;;;9.18;4.85;;;;;;;;;;4922853;29;20263;-94
2024/04/11 04:58:15;;;;;;;14.88;4.65;;;;;;;;;;4912194;29;20196;-92
2024/04/11 05:01:20;;;;;;;12.45;5.75;;;;;;;;;;4912327;29;20226;-93
2024/04/11 05:04:29;;;;;;;12.88;4.75;;;;;;;;;;4927466;29;20226;-93
2024/04/11 05:07:34;;;;;;;15.35;6.03;;;;;;;;;;4924757;29;20621;-93
2024/04/11 05:10:38;;;;;;;8.30;5.28;;;;;;;;;;4923398;29;20184;-93
2024/04/11 05:13:53;;;;;;;9.18;5.25;;;;;;;;;;4925344;29;20704;-93
2024/04/11 05:16:59;;;;;;;9.13;5.65;;;;;;;;;;4924868;29;20220;-93
2024/04/11 05:20:17;;;;;;;11.70;5.43;;;;;;;;;;4926282;29;20180;-94
2024/04/11 05:23:32;;;;;;;14.30;5.35;;;;;;;;;;4923414;29;20220;-93
2024/04/11 05:26:36;;;;;;;19.77;5.97;;;;;;;;;;4922814;29;20185;-93
2024/04/11 05:29:42;;;;;;;10.75;5.20;;;;;;;;;;4925244;29;20277;-92
2024/04/11 05:32:49;;;;;;;13.55;5.60;;;;;;;;;;4924721;29;20220;-93
2024/04/11 05:35:54;;;;;;;8.93;5.28;;;;;;;;;;4925104;29;20325;-92
2024/04/11 05:39:01;;;;;;;10.70;5.15;;;;;;;;;;4913321;29;20252;-94
2024/04/11 05:42:09;;;;;;;9.60;4.40;;;;;;;;;;4922605;29;20253;-91
2024/04/11 05:45:16;;;;;;;13.73;5.43;;;;;;;;;;4909663;29;20209;-93
2024/04/11 05:48:24;;;;;;;9.43;5.00;;;;;;;;;;4903558;29;20201;-94
2024/04/11 05:51:35;;;;;;;10.85;5.03;;;;;;;;;;4913352;29;20229;-94
2024/04/11 05:54:39;;;;;;;10.00;5.00;;;;;;;;;;4911079;29;20193;-95
2024/04/11 05:57:45;;;;;;;7.22;4.68;;;;;;;;;;4924949;29;20555;-94
2024/04/11 06:00:49;;;;;;;13.63;5.25;;;;;;;;;;4911309;29;20204;-93
2024/04/11 06:03:56;;;;;;;10.32;5.05;;;;;;;;;;4911460;29;20655;-93
2024/04/11 06:07:00;;;;;;;9.82;5.10;;;;;;;;;;4925775;29;20180;-91
2024/04/11 06:10:11;;;;;;;13.10;4.72;;;;;;;;;;4923233;29;20307;-94
2024/04/11 06:13:16;;;;;;;8.73;4.30;;;;;;;;;;4914933;29;20200;-93
2024/04/11 06:16:24;;;;;;;10.48;4.43;;;;;;;;;;4923988;29;20228;-94
2024/04/11 06:19:32;;;;;;;9.20;4.38;;;;;;;;;;4912923;29;20684;-93
2024/04/11 06:22:37;;;;;;;7.40;3.60;;;;;;;;;;4923756;29;20676;-93
2024/04/11 06:25:44;;;;;;;8.70;4.07;;;;;;;;;;4911806;29;20197;-91
2024/04/11 06:28:50;;;;;;;6.50;3.58;;;;;;;;;;4917856;29;20224;-94
2024/04/11 06:31:54;;;;;;;6.07;3.65;;;;;;;;;;4918157;29;20185;-93
2024/04/11 06:38:23;;;;;;;7.10;3.70;;;;;;;;;;4922003;29;20197;-93
2024/04/11 06:41:27;;;;;;;6.53;3.65;;;;;;;;;;4908877;29;20213;-94
2024/04/11 06:44:33;;;;;;;8.55;3.47;;;;;;;;;;4921330;29;20215;-93
2024/04/11 06:47:40;;;;;;;5.93;3.50;;;;;;;;;;4910083;29;20284;-94
2024/04/11 06:50:58;;;;;;;10.77;3.33;;;;;;;;;;4910744;29;20319;-93
2024/04/11 06:54:03;;;;;;;4.82;2.90;;;;;;;;;;4917964;29;20260;-93
2024/04/11 06:57:11;;;;;;;7.10;2.95;;;;;;;;;;4921179;29;20192;-94
2024/04/11 07:00:21;;;;;;;7.72;3.90;;;;;;;;;;4910344;29;20245;-94
2024/04/11 07:06:49;;;;;;;5.28;3.20;;;;;;;;;;4923378;29;20198;-94
2024/04/11 07:09:55;;;;;;;5.00;2.67;;;;;;;;;;4909768;29;20208;-94
2024/04/11 07:13:01;;;;;;;9.73;2.80;;;;;;;;;;4921711;29;20253;-94
2024/04/11 07:16:07;;;;;;;7.38;3.08;;;;;;;;;;4910350;29;20297;-95
2024/04/11 12:52:40;;;;;;;6.38;1.90;;;;;;;;;;5255525;23;20251;-95
2024/04/11 12:55:52;;;;;;;4.05;1.70;;;;;;;;;;4926032;29;20200;-95
2024/04/11 12:59:05;;;;;;;4.18;1.70;;;;;;;;;;4935841;29;20277;-93
2024/04/11 13:02:18;;;;;;;7.50;1.73;;;;;;;;;;4937654;29;20191;-92
2024/04/11 13:05:25;;;;;;;4.47;1.83;;;;;;;;;;4935988;29;20196;-92
2024/04/11 13:08:40;;;;;;;5.35;2.30;;;;;;;;;;4936885;29;20195;-93
2024/04/11 13:11:48;;;;;;;5.05;1.88;;;;;;;;;;4918775;29;20179;-94
2024/04/11 13:15:08;;;;;;;6.38;1.85;;;;;;;;;;4933613;29;20240;-92
2024/04/11 13:18:17;;;;;;;4.45;1.60;;;;;;;;;;4933690;29;20203;-94
2024/04/11 13:21:31;;;;;;;5.85;2.35;;;;;;;;;;4933213;29;20191;-95
2024/04/11 13:24:53;;;;;;;5.20;1.88;;;;;;;;;;4931696;29;20196;-93
2024/04/11 13:27:58;;;;;;;6.18;2.10;;;;;;;;;;4929852;29;20203;-92
2024/04/11 13:31:10;;;;;;;4.70;1.65;;;;;;;;;;4932297;29;20195;-92
2024/04/11 13:34:20;;;;;;;4.70;1.75;;;;;;;;;;4932617;29;20279;-93
2024/04/11 13:44:28;;;;;;;3.85;1.60;;;;;;;;;;4935648;29;20187;-93
2024/04/11 13:50:58;;;;;;;4.00;1.73;;;;;;;;;;4932311;29;20179;-93
2024/04/11 13:54:07;;;;;;;5.13;1.77;;;;;;;;;;4930995;29;20204;-94
2024/04/11 13:57:20;;;;;;;7.15;2.20;;;;;;;;;;4930738;29;20191;-95
2024/04/11 14:00:25;;;;;;;4.10;1.67;;;;;;;;;;4932818;29;20315;-94
2024/04/11 14:03:44;;;;;;;9.15;2.45;;;;;;;;;;4931313;29;20208;-92
2024/04/11 14:06:57;;;;;;;5.20;1.73;;;;;;;;;;4931751;29;20575;-94
2024/04/11 14:13:26;;;;;;;4.45;1.63;;;;;;;;;;4934208;29;20220;-92
2024/04/11 14:16:51;;;;;;;13.50;2.20;;;;;;;;;;4934677;29;20187;-92
2024/04/11 14:23:32;;;;;;;4.68;1.60;;;;;;;;;;4932312;29;20204;-94
2024/04/11 14:26:52;;;;;;;8.73;2.13;;;;;;;;;;4933422;29;20347;-92
2024/04/11 14:33:55;;;;;;;7.65;2.10;;;;;;;;;;4932492;29;20195;-93
2024/04/11 14:40:11;;;;;;;4.78;1.77;;;;;;;;;;4933688;29;20239;-94
2024/04/11 14:43:20;;;;;;;5.05;2.22;;;;;;;;;;4934436;29;20195;-94
2024/04/11 14:46:33;;;;;;;2.88;1.75;;;;;;;;;;4933318;29;20192;-91
2024/04/11 14:49:39;;;;;;;6.57;1.65;;;;;;;;;;4934563;29;20203;-92
2024/04/11 14:52:45;;;;;;;4.47;1.83;;;;;;;;;;4932168;29;20207;-93
2024/04/11 14:55:55;;;;;;;3.17;1.75;;;;;;;;;;4933314;29;20180;-93
2024/04/11 14:59:00;;;;;;;5.47;1.73;;;;;;;;;;4933766;29;20199;-94
2024/04/11 15:02:07;;;;;;;6.35;1.90;;;;;;;;;;4933136;29;20217;-93
2024/04/11 15:05:17;;;;;;;7.07;2.40;;;;;;;;;;4933161;29;20567;-92
2024/04/11 15:08:22;;;;;;;5.93;2.10;;;;;;;;;;4932735;29;20695;-94
2024/04/11 15:11:33;;;;;;;7.72;2.25;;;;;;;;;;4932063;29;20200;-93
2024/04/11 15:14:39;;;;;;;6.60;2.05;;;;;;;;;;4934036;29;20167;-93
2024/04/11 15:17:56;;;;;;;5.68;1.80;;;;;;;;;;4931442;29;20191;-92
2024/04/11 15:21:15;;;;;;;4.88;2.00;;;;;;;;;;4931154;29;20220;-91
2024/04/11 15:24:19;;;;;;;4.13;1.80;;;;;;;;;;4930011;29;20192;-92
2024/04/11 15:27:29;;;;;;;6.68;2.20;;;;;;;;;;4931952;29;20184;-92
2024/04/11 15:30:49;;;;;;;4.18;1.92;;;;;;;;;;4930265;29;20284;-91
2024/04/11 15:33:56;;;;;;;4.90;1.98;;;;;;;;;;4929986;29;20747;-94
2024/04/11 15:37:27;;;;;;;4.20;1.70;;;;;;;;;;4929574;29;20199;-92
2024/04/11 15:40:35;;;;;;;4.68;2.03;;;;;;;;;;4930883;29;20235;-93
2024/04/11 15:43:40;;;;;;;8.15;2.40;;;;;;;;;;4930305;29;20192;-92
2024/04/11 15:46:49;;;;;;;8.02;2.42;;;;;;;;;;4922893;29;20176;-93
2024/04/11 15:49:57;;;;;;;4.78;2.25;;;;;;;;;;4933302;29;20204;-93
2024/04/11 15:53:05;;;;;;;6.43;2.33;;;;;;;;;;4933296;29;20283;-93
2024/04/11 15:56:13;;;;;;;8.65;2.50;;;;;;;;;;4934181;29;20201;-93
2024/04/11 15:59:23;;;;;;;5.63;2.30;;;;;;;;;;4932783;29;20239;-92
2024/04/11 16:02:32;;;;;;;12.48;2.25;;;;;;;;;;4934002;29;20285;-93
2024/04/11 16:05:40;;;;;;;9.07;2.50;;;;;;;;;;4936788;29;20248;-94
2024/04/11 16:08:51;;;;;;;5.63;2.13;;;;;;;;;;4933435;29;20659;-93
2024/04/11 16:11:58;;;;;;;5.93;2.33;;;;;;;;;;4932622;29;20224;-94
2024/04/11 16:15:09;;;;;;;6.97;2.58;;;;;;;;;;4935028;29;20204;-92
2024/04/11 16:18:16;;;;;;;6.55;2.30;;;;;;;;;;4931066;29;20236;-93
2024/04/11 16:21:27;;;;;;;10.45;2.42;;;;;;;;;;4931195;29;20224;-94
2024/04/11 16:24:48;;;;;;;7.95;2.30;;;;;;;;;;4932814;29;20204;-92
2024/04/11 16:27:57;;;;;;;4.90;2.40;;;;;;;;;;4931804;29;20283;-95
2024/04/11 16:31:17;;;;;;;5.20;2.38;;;;;;;;;;4932996;29;20735;-94
2024/04/11 16:34:23;;;;;;;7.82;2.40;;;;;;;;;;4933269;29;20213;-93
2024/04/11 16:37:34;;;;;;;6.35;2.60;;;;;;;;;;4932294;29;20192;-93
2024/04/11 16:40:41;;;;;;;11.38;2.53;;;;;;;;;;4930758;29;20228;-94
2024/04/11 16:43:51;;;;;;;6.35;2.28;;;;;;;;;;4931489;29;20273;-92
2024/04/11 16:46:57;;;;;;;7.53;2.60;;;;;;;;;;4931577;29;20196;-92
2024/04/11 16:50:03;;;;;;;5.95;2.63;;;;;;;;;;4929125;29;20229;-93
2024/04/11 16:53:09;;;;;;;8.07;2.70;;;;;;;;;;4932406;29;20233;-93
2024/04/11 16:56:17;;;;;;;5.13;2.33;;;;;;;;;;4928802;29;20196;-92
2024/04/11 16:59:31;;;;;;;5.57;2.53;;;;;;;;;;4930918;29;20196;-92
2024/04/11 17:02:37;;;;;;;6.60;2.22;;;;;;;;;;4932588;29;20211;-92
2024/04/11 17:05:47;;;;;;;6.03;2.30;;;;;;;;;;4930992;29;20191;-92
2024/04/11 17:08:55;;;;;;;6.15;2.30;;;;;;;;;;4932328;29;20703;-93
2024/04/11 17:12:03;;;;;;;4.57;2.17;;;;;;;;;;4931551;29;20240;-93
2024/04/11 17:15:13;;;;;;;10.85;3.35;;;;;;;;;;4931121;29;20192;-91
2024/04/11 17:18:19;;;;;;;5.22;2.30;;;;;;;;;;4930803;29;20208;-92
2024/04/11 17:21:28;;;;;;;7.47;2.20;;;;;;;;;;4930722;29;20227;-92
2024/04/11 17:24:34;;;;;;;6.13;2.40;;;;;;;;;;4930265;29;20191;-92
2024/04/11 17:27:41;;;;;;;8.20;3.20;;;;;;;;;;4930171;29;20608;-93
2024/04/11 17:31:02;;;;;;;9.25;3.50;;;;;;;;;;4929434;29;20221;-92
2024/04/11 17:34:07;;;;;;;9.02;4.65;;;;;;;;;;4930454;29;20195;-92
2024/04/11 17:37:14;;;;;;;8.88;2.58;;;;;;;;;;4927132;29;20195;-93
2024/04/11 17:40:36;;;;;;;5.32;2.33;;;;;;;;;;4928961;29;20203;-93
2024/04/11 17:43:44;;;;;;;7.65;2.65;;;;;;;;;;4928834;29;20179;-92
2024/04/11 17:47:13;;;;;;;7.22;2.30;;;;;;;;;;4932922;29;20192;-92
2024/04/11 17:50:14;;;;;;;7.63;2.40;;;;;;;;;;4928639;29;20295;-92
2024/04/11 17:53:20;;;;;;;6.22;2.72;;;;;;;;;;4929635;29;20212;-92
2024/04/11 17:56:34;;;;;;;5.18;2.95;;;;;;;;;;4926994;29;20204;-91
2024/04/11 17:59:38;;;;;;;10.13;2.67;;;;;;;;;;4932691;29;20269;-90
2024/04/11 18:02:48;;;;;;;7.50;3.08;;;;;;;;;;4929231;29;20553;-93
2024/04/11 18:05:54;;;;;;;9.57;2.58;;;;;;;;;;4930675;29;20203;-92
2024/04/11 18:09:01;;;;;;;10.13;2.67;;;;;;;;;;4928459;29;20200;-93
2024/04/11 18:12:13;;;;;;;8.27;2.95;;;;;;;;;;4917982;29;20219;-93
2024/04/11 18:15:18;;;;;;;7.30;2.67;;;;;;;;;;4929479;29;20207;-92
2024/04/11 18:18:24;;;;;;;6.05;2.42;;;;;;;;;;4929037;29;20228;-92
2024/04/11 18:21:29;;;;;;;8.30;2.65;;;;;;;;;;4919140;29;20263;-91
2024/04/11 18:24:35;;;;;;;9.38;3.00;;;;;;;;;;4929877;29;20560;-91
2024/04/11 18:27:41;;;;;;;5.68;2.88;;;;;;;;;;4929281;29;20213;-91
2024/04/11 18:30:53;;;;;;;8.65;3.90;;;;;;;;;;4929198;29;20262;-91
2024/04/11 18:33:59;;;;;;;5.45;2.83;;;;;;;;;;4928765;29;20195;-92
2024/04/11 18:37:12;;;;;;;7.22;2.72;;;;;;;;;;4928609;29;20660;-91
2024/04/11 18:40:39;;;;;;;7.97;3.05;;;;;;;;;;4927148;29;20215;-91
2024/04/11 18:43:49;;;;;;;8.00;3.17;;;;;;;;;;4928823;29;20252;-93
2024/04/11 18:47:24;;;;;;;6.60;2.60;;;;;;;;;;4929398;29;20192;-92
2024/04/11 18:50:22;;;;;;;22.85;10.00;;;;;;;;;;4929396;29;20195;-91
2024/04/11 18:53:29;;;;;;;13.73;5.82;;;;;;;;;;4927331;29;20287;-92
2024/04/11 18:56:34;;;;;;;7.60;3.25;;;;;;;;;;4928828;29;20171;-91
2024/04/11 18:59:41;;;;;;;7.82;3.55;;;;;;;;;;4929301;29;20183;-93
2024/04/11 19:02:45;;;;;;;5.82;2.60;;;;;;;;;;4928108;29;20553;-92
2024/04/11 19:05:52;;;;;;;11.07;3.08;;;;;;;;;;4926488;29;20251;-91
2024/04/11 19:08:56;;;;;;;5.40;2.50;;;;;;;;;;4925799;29;20554;-91
2024/04/11 19:12:04;;;;;;;7.20;2.90;;;;;;;;;;4926432;29;20230;-91
2024/04/11 19:15:15;;;;;;;6.90;2.75;;;;;;;;;;4926903;29;20211;-92
2024/04/11 19:18:25;;;;;;;5.70;2.50;;;;;;;;;;4927685;29;20255;-91
2024/04/11 19:21:39;;;;;;;5.20;3.00;;;;;;;;;;4931628;29;20358;-92
2024/04/11 19:24:44;;;;;;;10.35;3.30;;;;;;;;;;4932435;29;20184;-92
2024/04/11 19:27:52;;;;;;;8.18;2.67;;;;;;;;;;4931195;29;20197;-91
2024/04/11 19:30:59;;;;;;;10.95;2.90;;;;;;;;;;4932298;29;20196;-91
2024/04/11 19:34:05;;;;;;;8.40;3.30;;;;;;;;;;4931696;29;20196;-93
2024/04/11 19:37:11;;;;;;;10.35;4.03;;;;;;;;;;4931456;29;20196;-94
2024/04/11 19:40:24;;;;;;;10.93;4.50;;;;;;;;;;4931175;29;20559;-91
2024/04/11 19:43:34;;;;;;;18.33;7.68;;;;;;;;;;4931609;29;20224;-90
2024/04/11 19:46:41;;;;;;;12.05;5.85;;;;;;;;;;4933275;29;20192;-92
2024/04/11 19:49:55;;;;;;;9.02;3.75;;;;;;;;;;4932968;29;20276;-93
2024/04/11 19:53:02;;;;;;;6.75;3.58;;;;;;;;;;4930443;29;20199;-91
2024/04/11 19:56:18;;;;;;;9.95;3.90;;;;;;;;;;4931627;29;20212;-92
2024/04/11 19:59:24;;;;;;;10.20;3.22;;;;;;;;;;4932358;29;20272;-91
2024/04/11 20:02:35;;;;;;;8.93;3.90;;;;;;;;;;4932258;29;20228;-93
2024/04/11 20:05:41;;;;;;;14.82;3.83;;;;;;;;;;4933480;29;20180;-92
2024/04/11 20:08:48;;;;;;;5.53;3.72;;;;;;;;;;4932937;29;20196;-90
2024/04/11 20:12:06;;;;;;;8.65;3.78;;;;;;;;;;4932491;29;20184;-92
2024/04/11 20:18:43;;;;;;;6.68;3.65;;;;;;;;;;4930335;29;20205;-93
2024/04/11 20:21:48;;;;;;;6.70;3.47;;;;;;;;;;4930295;29;20224;-92
2024/04/11 20:24:58;;;;;;;6.60;3.47;;;;;;;;;;4930311;29;20195;-93
2024/04/11 20:28:16;;;;;;;6.93;3.60;;;;;;;;;;4930344;29;20337;-91
2024/04/11 20:31:28;;;;;;;6.35;3.38;;;;;;;;;;4930047;29;20201;-91
2024/04/11 20:34:38;;;;;;;10.40;3.60;;;;;;;;;;4929358;29;20604;-92
2024/04/11 20:37:43;;;;;;;8.43;3.67;;;;;;;;;;4929628;29;20258;-91
2024/04/11 20:41:03;;;;;;;9.68;3.42;;;;;;;;;;4931930;29;20224;-91
2024/04/11 20:44:23;;;;;;;12.27;4.07;;;;;;;;;;4931818;29;20204;-92
2024/04/11 20:47:48;;;;;;;7.38;3.35;;;;;;;;;;4931250;29;20248;-91
2024/04/11 21:35:00;;;;;;;6.75;4.10;;;;;;;;;;4927922;29;20195;-90
2024/04/11 21:38:05;;;;;;;8.80;4.93;;;;;;;;;;4928544;29;20611;-90
2024/04/11 21:41:35;;;;;;;11.05;4.47;;;;;;;;;;4928811;29;20286;-92
2024/04/11 21:44:39;;;;;;;13.48;4.55;;;;;;;;;;4929107;29;20183;-91
2024/04/11 21:47:45;;;;;;;24.90;10.88;;;;;;;;;;4928917;29;20179;-92
2024/04/11 21:50:49;;;;;;;8.75;4.78;;;;;;;;;;4917160;29;20191;-92
2024/04/11 21:53:57;;;;;;;8.88;4.63;;;;;;;;;;4928198;29;20659;-92
2024/04/11 21:57:05;;;;;;;12.48;4.55;;;;;;;;;;4928165;29;20203;-92
2024/04/11 22:00:21;;;;;;;7.75;4.18;;;;;;;;;;4927133;29;20208;-91
2024/04/11 22:03:28;;;;;;;11.73;4.07;;;;;;;;;;4927922;29;20240;-91
2024/04/11 22:06:36;;;;;;;8.68;4.40;;;;;;;;;;4929286;29;20184;-91
2024/04/11 22:09:43;;;;;;;8.07;4.28;;;;;;;;;;4929819;29;20671;-90
2024/04/11 22:12:51;;;;;;;7.95;4.07;;;;;;;;;;4928592;29;20244;-92
2024/04/11 22:16:02;;;;;;;9.80;4.82;;;;;;;;;;4928907;29;20195;-90
2024/04/11 22:19:20;;;;;;;9.88;4.93;;;;;;;;;;4927851;29;20192;-90
2024/04/11 22:22:28;;;;;;;7.32;4.38;;;;;;;;;;4928722;29;20263;-91
2024/04/11 22:25:53;;;;;;;10.32;4.43;;;;;;;;;;4926477;29;20216;-92
2024/04/11 22:29:03;;;;;;;8.55;4.68;;;;;;;;;;4927748;29;20209;-91
2024/04/11 22:32:10;;;;;;;10.55;4.82;;;;;;;;;;4926580;29;20247;-92
2024/04/11 22:35:17;;;;;;;9.40;4.50;;;;;;;;;;4927682;29;20217;-93
2024/04/11 22:38:27;;;;;;;8.35;4.80;;;;;;;;;;4926774;29;20200;-93
2024/04/11 22:41:31;;;;;;;10.65;4.82;;;;;;;;;;4927603;29;20212;-92
2024/04/11 22:45:04;;;;;;;9.02;4.60;;;;;;;;;;4931996;29;20176;-91
2024/04/11 22:51:17;;;;;;;10.27;5.05;;;;;;;;;;5205813;23;20240;-91
2024/04/11 22:54:32;;;;;;;10.20;4.70;;;;;;;;;;4939549;29;20199;-92
2024/04/11 22:57:48;;;;;;;10.38;4.40;;;;;;;;;;4939602;29;20180;-93
2024/04/11 23:00:55;;;;;;;7.07;4.80;;;;;;;;;;4922383;29;20278;-92
2024/04/11 23:04:00;;;;;;;11.15;4.68;;;;;;;;;;4928061;29;20257;-92
2024/04/11 23:07:11;;;;;;;8.48;4.50;;;;;;;;;;4929921;29;20212;-93
2024/04/11 23:10:19;;;;;;;10.20;4.60;;;;;;;;;;4928560;29;20191;-93
2024/04/11 23:13:31;;;;;;;8.40;4.35;;;;;;;;;;4928276;29;20217;-92
2024/04/11 23:16:35;;;;;;;6.93;4.43;;;;;;;;;;4927815;29;20204;-92
2024/04/11 23:19:58;;;;;;;8.95;4.90;;;;;;;;;;4927845;29;20188;-92
2024/04/11 23:23:15;;;;;;;11.52;4.80;;;;;;;;;;4928618;29;20755;-92
2024/04/11 23:26:20;;;;;;;7.28;4.18;;;;;;;;;;4928759;29;20321;-93
2024/04/11 23:29:34;;;;;;;7.68;4.57;;;;;;;;;;4926964;29;20191;-92
2024/04/11 23:32:39;;;;;;;6.88;4.18;;;;;;;;;;4927696;29;20272;-92
2024/04/11 23:35:48;;;;;;;11.70;4.82;;;;;;;;;;4928010;29;20192;-94
2024/04/11 23:38:58;;;;;;;8.95;4.43;;;;;;;;;;4926993;29;20256;-93
2024/04/11 23:42:02;;;;;;;8.50;5.20;;;;;;;;;;4927314;29;20229;-92
2024/04/11 23:45:25;;;;;;;10.23;5.15;;;;;;;;;;4926686;29;20204;-93
2024/04/11 23:48:38;;;;;;;11.73;4.70;;;;;;;;;;4927611;29;20212;-91
2024/04/11 23:51:45;;;;;;;11.85;5.38;;;;;;;;;;4926378;29;20287;-91
2024/04/11 23:54:52;;;;;;;10.75;5.35;;;;;;;;;;4928635;29;20196;-92
2024/04/11 23:58:02;;;;;;;10.23;5.45;;;;;;;;;;4927207;29;20184;-94
